Time;durP1;ratioP1;P1;durP2;ratioP2;P2;SDS_P1;SDS_P2;PMS_P1;PMS_P2;Temp;Humidity;BMP_temperature;BMP_pressure;BME280_temperature;BME280_humidity;BME280_pressure;Samples;Min_cycle;Max_cycle;Signal;HPM_P1;HPM_P2
2024/01/14 00:02:12;;;;;;;;;;;-3.30;99.90;;;;;;5117639;28;20288;-67
2024/01/14 00:04:39;;;;;;;;;;;-3.30;99.90;;;;;;5123241;28;19983;-67
2024/01/14 00:07:07;;;;;;;;;;;-3.30;99.90;;;;;;5115709;28;20209;-66
2024/01/14 00:09:34;;;;;;;;;;;-3.30;99.90;;;;;;5121822;28;19951;-67
2024/01/14 00:12:00;;;;;;;;;;;-3.30;99.90;;;;;;5121265;28;19979;-66
2024/01/14 00:14:27;;;;;;;;;;;-3.30;99.90;;;;;;5114793;28;20162;-67
2024/01/14 00:16:53;;;;;;;;;;;-3.30;99.90;;;;;;5119034;28;19920;-67
2024/01/14 00:19:20;;;;;;;;;;;-3.30;99.90;;;;;;5111757;28;20168;-67
2024/01/14 00:21:46;;;;;;;;;;;-3.30;99.90;;;;;;5115101;28;19919;-66
2024/01/14 00:24:15;;;;;;;;;;;-3.40;99.90;;;;;;5117865;28;20213;-67
2024/01/14 00:26:42;;;;;;;;;;;-3.40;99.90;;;;;;5107103;28;19955;-67
2024/01/14 00:29:09;;;;;;;;;;;-3.40;99.90;;;;;;5116307;28;19920;-67
2024/01/14 00:31:35;;;;;;;;;;;-3.30;99.90;;;;;;5118288;28;20221;-67
2024/01/14 00:34:02;;;;;;;;;;;-3.40;99.90;;;;;;5120282;28;19920;-66
2024/01/14 00:36:28;;;;;;;;;;;-3.40;99.90;;;;;;5115419;28;20124;-66
2024/01/14 00:38:55;;;;;;;;;;;-3.40;99.90;;;;;;5123592;28;19986;-67
2024/01/14 00:41:23;;;;;;;;;;;-3.40;99.90;;;;;;5126502;28;19955;-67
2024/01/14 00:43:50;;;;;;;;;;;-3.30;99.90;;;;;;5116112;28;20177;-67
2024/01/14 00:46:16;;;;;;;;;;;-3.30;99.90;;;;;;5126233;28;19951;-67
2024/01/14 00:48:43;;;;;;;;;;;-3.40;99.90;;;;;;5120654;28;19923;-67
2024/01/14 00:51:09;;;;;;;;;;;-3.30;99.90;;;;;;5124083;28;19927;-67
2024/01/14 00:53:36;;;;;;;;;;;-3.40;99.90;;;;;;5123221;28;19958;-67
2024/01/14 00:56:03;;;;;;;;;;;-3.40;99.90;;;;;;5126426;28;19982;-67
2024/01/14 00:58:31;;;;;;;;;;;-3.40;99.90;;;;;;5124967;28;19955;-67
2024/01/14 01:00:57;;;;;;;;;;;-3.30;99.90;;;;;;5118277;28;19974;-67
2024/01/14 01:03:24;;;;;;;;;;;-3.40;99.90;;;;;;5109050;28;19979;-67
2024/01/14 01:05:54;;;;;;;;;;;-3.40;99.90;;;;;;5117872;28;19957;-67
2024/01/14 01:08:20;;;;;;;;;;;-3.00;99.90;;;;;;5122626;28;19926;-67
2024/01/14 01:10:48;;;;;;;;;;;-3.40;99.90;;;;;;5110276;28;20205;-67
2024/01/14 01:13:15;;;;;;;;;;;-3.40;99.90;;;;;;5121460;28;19955;-67
2024/01/14 01:15:43;;;;;;;;;;;-3.30;99.90;;;;;;5121052;28;19999;-67
2024/01/14 01:18:09;;;;;;;;;;;-3.40;99.90;;;;;;5126234;28;20252;-67
2024/01/14 01:20:36;;;;;;;;;;;-3.40;99.90;;;;;;5117830;28;19990;-67
2024/01/14 01:23:03;;;;;;;;;;;-3.50;99.90;;;;;;5126261;28;19946;-66
2024/01/14 01:25:30;;;;;;;;;;;-3.50;99.90;;;;;;5123703;28;20159;-67
2024/01/14 01:27:56;;;;;;;;;;;-3.50;99.90;;;;;;5121894;28;19991;-67
2024/01/14 01:30:23;;;;;;;;;;;-3.50;99.90;;;;;;5120635;28;19942;-67
2024/01/14 01:32:51;;;;;;;;;;;-3.50;99.90;;;;;;5107440;28;19951;-67
2024/01/14 01:35:18;;;;;;;;;;;-3.40;99.90;;;;;;5112605;28;19920;-67
2024/01/14 01:37:44;;;;;;;;;;;-3.50;99.90;;;;;;5114719;28;19998;-66
2024/01/14 01:40:12;;;;;;;;;;;-3.50;99.90;;;;;;5109515;28;19920;-67
2024/01/14 01:42:38;;;;;;;;;;;-3.50;99.90;;;;;;5116621;28;19940;-67
2024/01/14 01:45:05;;;;;;;;;;;-3.50;99.90;;;;;;5124968;28;19928;-67
2024/01/14 01:47:32;;;;;;;;;;;-3.50;99.90;;;;;;5120123;28;20162;-66
2024/01/14 01:50:00;;;;;;;;;;;-3.50;99.90;;;;;;5117983;28;20003;-67
2024/01/14 01:52:27;;;;;;;;;;;-3.50;99.90;;;;;;5125683;28;19951;-67
2024/01/14 01:54:54;;;;;;;;;;;-3.50;99.90;;;;;;5117824;28;20155;-67
2024/01/14 01:57:22;;;;;;;;;;;-3.40;99.90;;;;;;5115221;28;19961;-67
2024/01/14 01:59:49;;;;;;;;;;;-3.40;99.90;;;;;;5117514;28;19919;-66
2024/01/14 02:02:16;;;;;;;;;;;-3.40;99.90;;;;;;5122658;28;19965;-67
2024/01/14 02:04:43;;;;;;;;;;;-3.40;99.90;;;;;;5114156;28;20214;-67
2024/01/14 02:07:11;;;;;;;;;;;-3.50;99.90;;;;;;5123737;28;19955;-67
2024/01/14 02:09:38;;;;;;;;;;;-3.50;99.90;;;;;;5123549;28;19951;-67
2024/01/14 02:12:05;;;;;;;;;;;-3.60;99.90;;;;;;5123439;28;19955;-67
2024/01/14 02:14:32;;;;;;;;;;;-3.60;99.90;;;;;;5124295;28;19955;-67
2024/01/14 02:16:58;;;;;;;;;;;-3.60;99.90;;;;;;5111179;28;19991;-67
2024/01/14 02:19:25;;;;;;;;;;;-3.60;99.90;;;;;;5117325;28;19932;-67
2024/01/14 02:21:55;;;;;;;;;;;-3.60;99.90;;;;;;5124954;28;19962;-67
2024/01/14 02:24:26;;;;;;;;;;;-3.60;99.90;;;;;;5121467;28;19958;-67
2024/01/14 02:26:53;;;;;;;;;;;-3.60;99.90;;;;;;5121960;28;19975;-67
2024/01/14 02:29:20;;;;;;;;;;;-3.60;99.90;;;;;;5113249;28;19955;-67
2024/01/14 02:31:46;;;;;;;;;;;-3.60;99.90;;;;;;5113167;28;19955;-67
2024/01/14 02:34:13;;;;;;;;;;;-3.60;99.90;;;;;;5116896;28;19962;-67
2024/01/14 02:36:40;;;;;;;;;;;-3.60;99.90;;;;;;5121197;28;19927;-67
2024/01/14 02:39:07;;;;;;;;;;;-3.60;99.90;;;;;;5116108;28;19951;-67
2024/01/14 02:41:35;;;;;;;;;;;-3.60;99.90;;;;;;5121479;28;19927;-66
2024/01/14 02:44:02;;;;;;;;;;;-3.60;99.90;;;;;;5115549;28;19920;-66
2024/01/14 02:46:29;;;;;;;;;;;-3.60;99.90;;;;;;5124844;28;20017;-67
2024/01/14 02:48:55;;;;;;;;;;;-3.60;99.90;;;;;;5116945;28;19987;-67
2024/01/14 02:51:22;;;;;;;;;;;-3.60;99.90;;;;;;5100104;28;19987;-66
2024/01/14 02:53:49;;;;;;;;;;;-3.70;99.90;;;;;;5099587;28;19920;-67
2024/01/14 02:56:15;;;;;;;;;;;-3.60;99.90;;;;;;5098347;28;20263;-67
2024/01/14 02:58:43;;;;;;;;;;;-3.60;99.90;;;;;;5097320;28;19987;-67
2024/01/14 03:01:11;;;;;;;;;;;-3.70;99.90;;;;;;5101039;28;19927;-67
2024/01/14 03:03:38;;;;;;;;;;;-3.70;99.90;;;;;;5099313;27;20273;-67
2024/01/14 03:06:05;;;;;;;;;;;-3.60;99.90;;;;;;5098609;28;20232;-67
2024/01/14 03:08:31;;;;;;;;;;;-3.60;99.90;;;;;;5099427;28;20168;-67
2024/01/14 03:10:58;;;;;;;;;;;-3.60;99.90;;;;;;5100839;28;19920;-67
2024/01/14 03:13:26;;;;;;;;;;;-3.60;99.90;;;;;;5095172;28;19962;-67
2024/01/14 03:15:54;;;;;;;;;;;-3.60;99.90;;;;;;5098107;28;19940;-67
2024/01/14 03:18:21;;;;;;;;;;;-3.60;99.90;;;;;;5107188;28;19954;-66
2024/01/14 03:20:48;;;;;;;;;;;-3.60;99.90;;;;;;5111030;28;19991;-67
2024/01/14 03:23:14;;;;;;;;;;;-3.60;99.90;;;;;;5120564;28;19958;-67
2024/01/14 03:25:41;;;;;;;;;;;-3.70;99.90;;;;;;5107369;28;19964;-67
2024/01/14 03:28:08;;;;;;;;;;;-3.70;99.90;;;;;;5121811;28;19962;-67
2024/01/14 03:30:34;;;;;;;;;;;-3.70;99.90;;;;;;5115769;28;20235;-67
2024/01/14 03:33:02;;;;;;;;;;;-3.70;99.90;;;;;;5112632;28;20201;-66
2024/01/14 03:35:29;;;;;;;;;;;-3.70;99.90;;;;;;5117641;28;19920;-67
2024/01/14 03:37:56;;;;;;;;;;;-3.70;99.90;;;;;;5121034;28;19983;-66
2024/01/14 03:40:23;;;;;;;;;;;-3.60;99.90;;;;;;5118475;28;20284;-67
2024/01/14 03:42:49;;;;;;;;;;;-3.60;99.90;;;;;;5119617;28;19926;-67
2024/01/14 03:45:16;;;;;;;;;;;-3.50;99.90;;;;;;5123806;28;19983;-67
2024/01/14 03:47:43;;;;;;;;;;;-3.50;99.90;;;;;;5119152;28;19919;-67
2024/01/14 03:50:11;;;;;;;;;;;-3.50;99.90;;;;;;5115945;28;20276;-66
2024/01/14 03:52:38;;;;;;;;;;;-3.50;99.90;;;;;;5123879;28;19920;-67
2024/01/14 03:55:05;;;;;;;;;;;-3.50;99.90;;;;;;5120430;28;20151;-67
2024/01/14 03:57:31;;;;;;;;;;;-3.50;99.90;;;;;;5121941;28;19959;-67
2024/01/14 03:59:58;;;;;;;;;;;-3.50;99.90;;;;;;5118979;28;20227;-66
2024/01/14 04:02:25;;;;;;;;;;;-3.60;99.90;;;;;;5120319;28;19990;-69
2024/01/14 04:04:52;;;;;;;;;;;-3.60;99.90;;;;;;5118651;28;19936;-67
2024/01/14 04:07:20;;;;;;;;;;;-3.60;99.90;;;;;;5117656;28;19961;-67
2024/01/14 04:09:47;;;;;;;;;;;-3.70;99.90;;;;;;5119320;28;20157;-67
2024/01/14 04:12:13;;;;;;;;;;;-3.70;99.90;;;;;;5119228;28;19920;-66
2024/01/14 04:14:40;;;;;;;;;;;-3.70;99.90;;;;;;5123220;28;20284;-66
2024/01/14 04:17:07;;;;;;;;;;;-3.70;99.90;;;;;;5118818;28;19920;-67
2024/01/14 04:19:33;;;;;;;;;;;-3.70;99.90;;;;;;5119052;28;19978;-67
2024/01/14 04:22:00;;;;;;;;;;;-3.60;99.90;;;;;;5127534;28;19920;-67
2024/01/14 04:24:28;;;;;;;;;;;-3.60;99.90;;;;;;5123207;28;19983;-67
2024/01/14 04:26:54;;;;;;;;;;;-3.70;99.90;;;;;;5130621;28;19961;-66
2024/01/14 04:29:21;;;;;;;;;;;-3.70;99.90;;;;;;5126920;28;19919;-67
2024/01/14 04:31:47;;;;;;;;;;;-3.60;99.90;;;;;;5125361;28;19955;-67
2024/01/14 04:34:14;;;;;;;;;;;-3.60;99.90;;;;;;5112403;28;19983;-67
2024/01/14 04:36:41;;;;;;;;;;;-3.60;99.90;;;;;;5122032;28;19987;-67
2024/01/14 04:39:08;;;;;;;;;;;-3.50;99.90;;;;;;5122790;28;19926;-66
2024/01/14 04:41:36;;;;;;;;;;;-3.50;99.90;;;;;;5126856;28;19927;-67
2024/01/14 04:44:03;;;;;;;;;;;-3.50;99.90;;;;;;5126429;28;19945;-67
2024/01/14 04:46:29;;;;;;;;;;;-3.50;99.90;;;;;;5121974;28;19963;-67
2024/01/14 04:48:56;;;;;;;;;;;-3.50;99.90;;;;;;5121628;28;19919;-67
2024/01/14 04:51:22;;;;;;;;;;;-3.50;99.90;;;;;;5122416;28;19958;-67
2024/01/14 04:53:49;;;;;;;;;;;-3.50;99.90;;;;;;5122865;28;20184;-67
2024/01/14 04:56:16;;;;;;;;;;;-3.40;99.90;;;;;;5125245;28;19947;-67
2024/01/14 04:58:44;;;;;;;;;;;-3.50;99.90;;;;;;5113595;28;19952;-67
2024/01/14 05:01:10;;;;;;;;;;;-3.50;99.90;;;;;;5124608;28;19952;-67
2024/01/14 05:03:37;;;;;;;;;;;-3.50;99.90;;;;;;5124013;28;19919;-67
2024/01/14 05:06:05;;;;;;;;;;;-3.40;99.90;;;;;;5117098;28;19920;-67
2024/01/14 05:08:31;;;;;;;;;;;-3.40;99.90;;;;;;5125228;28;19991;-66
2024/01/14 05:10:59;;;;;;;;;;;-3.40;99.90;;;;;;5124662;28;19947;-67
2024/01/14 05:13:25;;;;;;;;;;;-3.40;99.90;;;;;;5119226;28;19951;-67
2024/01/14 05:15:53;;;;;;;;;;;-3.30;99.90;;;;;;5122274;28;20121;-67
2024/01/14 05:18:20;;;;;;;;;;;-3.40;99.90;;;;;;5117614;28;19951;-67
2024/01/14 05:20:46;;;;;;;;;;;-3.40;99.90;;;;;;5116019;28;19927;-67
2024/01/14 05:23:13;;;;;;;;;;;-3.40;99.90;;;;;;5122791;28;20227;-67
2024/01/14 05:25:40;;;;;;;;;;;-3.30;99.90;;;;;;5125337;28;19926;-67
2024/01/14 05:28:08;;;;;;;;;;;-3.40;99.90;;;;;;5125235;28;19926;-67
2024/01/14 05:30:35;;;;;;;;;;;-3.40;99.90;;;;;;5115722;28;19954;-67
2024/01/14 05:33:03;;;;;;;;;;;-3.40;99.90;;;;;;5123865;28;20007;-67
2024/01/14 05:35:30;;;;;;;;;;;-3.30;99.90;;;;;;5118993;28;20201;-67
2024/01/14 05:37:56;;;;;;;;;;;-3.30;99.90;;;;;;5124977;28;19982;-67
2024/01/14 05:40:23;;;;;;;;;;;-3.30;99.90;;;;;;5118523;28;19958;-67
2024/01/14 05:42:50;;;;;;;;;;;-3.30;99.90;;;;;;5125553;28;20180;-67
2024/01/14 05:45:17;;;;;;;;;;;-3.30;99.90;;;;;;5123672;28;19954;-67
2024/01/14 05:47:43;;;;;;;;;;;-3.30;99.90;;;;;;5124407;28;20201;-67
2024/01/14 05:50:12;;;;;;;;;;;-3.30;99.90;;;;;;5124992;28;19950;-66
2024/01/14 05:52:41;;;;;;;;;;;-3.30;99.90;;;;;;5114262;28;19920;-67
2024/01/14 05:55:08;;;;;;;;;;;-3.30;99.90;;;;;;5118381;28;19979;-66
2024/01/14 05:57:34;;;;;;;;;;;-3.40;99.90;;;;;;5114535;28;19920;-66
2024/01/14 06:00:01;;;;;;;;;;;-3.40;99.90;;;;;;5117948;28;20181;-67
2024/01/14 06:02:28;;;;;;;;;;;-3.50;99.90;;;;;;5122599;28;19994;-66
2024/01/14 06:04:54;;;;;;;;;;;-3.50;99.90;;;;;;5118603;28;20292;-68
2024/01/14 06:07:22;;;;;;;;;;;-3.50;99.90;;;;;;5108689;28;19928;-67
2024/01/14 06:09:49;;;;;;;;;;;-3.50;99.90;;;;;;5118837;28;19983;-67
2024/01/14 06:12:16;;;;;;;;;;;-3.50;99.90;;;;;;5113304;28;19920;-67
2024/01/14 06:14:42;;;;;;;;;;;-3.50;99.90;;;;;;5118991;28;19951;-66
2024/01/14 06:17:09;;;;;;;;;;;-3.60;99.90;;;;;;5123027;28;19927;-66
2024/01/14 06:19:36;;;;;;;;;;;-3.60;99.90;;;;;;5120139;28;19920;-67
2024/01/14 06:22:03;;;;;;;;;;;-3.60;99.90;;;;;;5120074;28;20010;-67
2024/01/14 06:24:31;;;;;;;;;;;-3.60;99.90;;;;;;5125098;28;19958;-67
2024/01/14 06:26:57;;;;;;;;;;;-3.60;99.90;;;;;;5116985;28;20211;-67
2024/01/14 06:29:24;;;;;;;;;;;-3.60;99.90;;;;;;5117926;28;19926;-67
2024/01/14 06:31:51;;;;;;;;;;;-3.60;99.90;;;;;;5116332;28;19941;-67
2024/01/14 06:34:17;;;;;;;;;;;-3.60;99.90;;;;;;5111868;28;20300;-67
2024/01/14 06:36:44;;;;;;;;;;;-3.60;99.90;;;;;;5121746;28;19920;-67
2024/01/14 06:39:10;;;;;;;;;;;-3.50;99.90;;;;;;5124998;28;20264;-67
2024/01/14 06:41:38;;;;;;;;;;;-3.50;99.90;;;;;;5116886;28;19919;-67
2024/01/14 06:44:05;;;;;;;;;;;-3.60;99.90;;;;;;5122518;28;19946;-67
2024/01/14 06:46:32;;;;;;;;;;;-3.60;99.90;;;;;;5125141;28;19947;-66
2024/01/14 06:48:59;;;;;;;;;;;-3.60;99.90;;;;;;5122472;28;19926;-67
2024/01/14 06:51:25;;;;;;;;;;;-3.60;99.90;;;;;;5120656;28;20058;-66
2024/01/14 06:53:52;;;;;;;;;;;-3.60;99.90;;;;;;5120611;28;19983;-68
2024/01/14 06:56:19;;;;;;;;;;;-3.60;99.90;;;;;;5118741;28;19947;-67
2024/01/14 06:58:49;;;;;;;;;;;-3.60;99.90;;;;;;5116998;28;20095;-67
2024/01/14 07:01:15;;;;;;;;;;;-3.60;99.90;;;;;;5112617;28;20399;-67
2024/01/14 07:03:42;;;;;;;;;;;-3.70;99.90;;;;;;5122209;28;19920;-67
2024/01/14 07:06:09;;;;;;;;;;;-3.70;99.90;;;;;;5117023;28;19973;-66
2024/01/14 07:08:35;;;;;;;;;;;-3.80;99.90;;;;;;5114067;28;19999;-67
2024/01/14 07:11:02;;;;;;;;;;;-3.80;99.90;;;;;;5110743;28;19983;-67
2024/01/14 07:13:28;;;;;;;;;;;-3.80;99.90;;;;;;5119227;28;20175;-66
2024/01/14 07:15:57;;;;;;;;;;;-3.80;99.90;;;;;;5122383;28;19926;-67
2024/01/14 07:18:23;;;;;;;;;;;-3.80;99.90;;;;;;5117598;28;20228;-66
2024/01/14 07:20:50;;;;;;;;;;;-3.70;99.90;;;;;;5115818;28;19982;-67
2024/01/14 07:23:17;;;;;;;;;;;-3.70;99.90;;;;;;5121614;28;20116;-66
2024/01/14 07:25:44;;;;;;;;;;;-3.70;99.90;;;;;;5121798;28;19926;-67
2024/01/14 07:28:10;;;;;;;;;;;-3.80;99.90;;;;;;5111646;28;19983;-67
2024/01/14 07:30:37;;;;;;;;;;;-3.80;99.90;;;;;;5110467;28;19956;-67
2024/01/14 07:33:05;;;;;;;;;;;-3.70;99.90;;;;;;5122134;28;19982;-67
2024/01/14 07:35:32;;;;;;;;;;;-3.70;99.90;;;;;;5116583;28;20127;-67
2024/01/14 07:37:59;;;;;;;;;;;-3.70;99.90;;;;;;5119898;28;20208;-67
2024/01/14 07:40:26;;;;;;;;;;;-3.70;99.90;;;;;;5116333;28;19994;-67
2024/01/14 07:42:53;;;;;;;;;;;-3.70;99.90;;;;;;5117328;28;19983;-66
2024/01/14 07:45:20;;;;;;;;;;;-3.70;99.90;;;;;;5115182;28;19941;-67
2024/01/14 07:47:46;;;;;;;;;;;-3.70;99.90;;;;;;5120994;28;19942;-67
2024/01/14 07:50:15;;;;;;;;;;;-3.60;99.90;;;;;;5120128;28;20150;-66
2024/01/14 07:52:42;;;;;;;;;;;-3.70;99.90;;;;;;5116670;28;19955;-68
2024/01/14 07:55:08;;;;;;;;;;;-3.60;99.90;;;;;;5120695;28;19924;-67
2024/01/14 07:57:35;;;;;;;;;;;-3.60;99.90;;;;;;5125120;28;19987;-67
2024/01/14 08:00:04;;;;;;;;;;;-3.60;99.90;;;;;;5122218;28;19920;-67
2024/01/14 08:02:31;;;;;;;;;;;-3.60;99.90;;;;;;5122945;28;19927;-67
2024/01/14 08:04:57;;;;;;;;;;;-3.70;99.90;;;;;;5124867;28;19927;-67
2024/01/14 08:07:25;;;;;;;;;;;-3.80;99.90;;;;;;5117345;28;19920;-67
2024/01/14 08:09:52;;;;;;;;;;;-3.80;99.90;;;;;;5123594;28;19927;-66
2024/01/14 08:12:18;;;;;;;;;;;-3.90;99.90;;;;;;5124732;28;19919;-66
2024/01/14 08:14:45;;;;;;;;;;;-3.90;99.90;;;;;;5126003;28;20257;-70
2024/01/14 08:17:12;;;;;;;;;;;-3.90;99.90;;;;;;5122890;28;19939;-68
2024/01/14 08:19:38;;;;;;;;;;;-3.90;99.90;;;;;;5120994;28;19920;-66
2024/01/14 08:22:05;;;;;;;;;;;-3.90;99.90;;;;;;5123295;28;19983;-66
2024/01/14 08:24:33;;;;;;;;;;;-3.90;99.90;;;;;;5126119;28;20166;-66
2024/01/14 08:27:01;;;;;;;;;;;-4.00;99.90;;;;;;5121811;28;19941;-66
2024/01/14 08:29:27;;;;;;;;;;;-4.00;99.90;;;;;;5125559;28;19951;-66
2024/01/14 08:31:54;;;;;;;;;;;-3.90;99.90;;;;;;5125505;28;20330;-66
2024/01/14 08:34:20;;;;;;;;;;;-3.90;99.90;;;;;;5121846;28;19959;-66
2024/01/14 08:36:47;;;;;;;;;;;-3.90;99.90;;;;;;5115602;28;19931;-66
2024/01/14 08:39:14;;;;;;;;;;;-3.90;99.90;;;;;;5126834;28;19939;-66
2024/01/14 08:41:42;;;;;;;;;;;-3.90;99.90;;;;;;5125056;28;19926;-65
2024/01/14 08:44:10;;;;;;;;;;;-3.90;99.90;;;;;;5115696;28;19991;-66
2024/01/14 08:46:39;;;;;;;;;;;-3.90;99.90;;;;;;5125043;28;19927;-66
2024/01/14 08:49:06;;;;;;;;;;;-3.90;99.90;;;;;;5125880;28;20176;-66
2024/01/14 08:51:32;;;;;;;;;;;-3.90;99.90;;;;;;5123005;28;19947;-66
2024/01/14 08:54:00;;;;;;;;;;;-3.90;99.90;;;;;;5117648;28;19947;-67
2024/01/14 08:56:28;;;;;;;;;;;-3.80;99.90;;;;;;5126599;28;19930;-66
2024/01/14 08:58:56;;;;;;;;;;;-3.80;99.90;;;;;;5122590;28;20228;-67
2024/01/14 09:01:22;;;;;;;;;;;-3.80;99.90;;;;;;5103840;28;19931;-67
2024/01/14 09:03:49;;;;;;;;;;;-3.80;99.90;;;;;;5113554;28;19955;-68
2024/01/14 09:06:15;;;;;;;;;;;-3.80;99.90;;;;;;5117309;28;19979;-67
2024/01/14 09:08:42;;;;;;;;;;;-3.70;99.90;;;;;;5121504;28;19926;-67
2024/01/14 09:11:09;;;;;;;;;;;-3.70;99.90;;;;;;5111275;28;19966;-67
2024/01/14 09:13:36;;;;;;;;;;;-3.70;99.90;;;;;;5110426;28;19954;-67
2024/01/14 09:16:05;;;;;;;;;;;-3.60;99.90;;;;;;5119407;28;19979;-67
2024/01/14 09:18:32;;;;;;;;;;;-3.60;99.90;;;;;;5124090;28;19923;-66
2024/01/14 09:20:58;;;;;;;;;;;-3.50;99.90;;;;;;5122316;28;19919;-66
2024/01/14 09:23:25;;;;;;;;;;;-3.40;99.90;;;;;;5120266;28;19995;-67
2024/01/14 09:25:52;;;;;;;;;;;-3.40;99.90;;;;;;5119695;28;19983;-67
2024/01/14 09:28:18;;;;;;;;;;;-3.30;99.90;;;;;;5122554;28;19987;-68
2024/01/14 09:30:45;;;;;;;;;;;-3.20;99.90;;;;;;5114193;28;19954;-67
2024/01/14 09:33:14;;;;;;;;;;;-3.20;99.90;;;;;;5122390;28;20003;-67
2024/01/14 09:35:41;;;;;;;;;;;-3.20;99.90;;;;;;5116888;28;19920;-67
2024/01/14 09:38:08;;;;;;;;;;;-3.20;99.90;;;;;;5122018;28;20205;-66
2024/01/14 09:40:35;;;;;;;;;;;-3.20;99.90;;;;;;5123890;27;19958;-66
2024/01/14 09:43:04;;;;;;;;;;;-3.20;99.90;;;;;;5122927;28;20174;-67
2024/01/14 09:45:32;;;;;;;;;;;-3.20;99.90;;;;;;5116165;28;19920;-67
2024/01/14 09:47:59;;;;;;;;;;;-3.20;99.90;;;;;;5123543;28;19927;-66
2024/01/14 09:50:27;;;;;;;;;;;-3.20;99.90;;;;;;5126514;28;20087;-67
2024/01/14 09:52:56;;;;;;;;;;;-3.20;99.90;;;;;;5122615;28;19946;-67
2024/01/14 09:55:23;;;;;;;;;;;-3.20;99.90;;;;;;5106373;28;19959;-66
2024/01/14 09:57:50;;;;;;;;;;;-3.10;99.90;;;;;;5105246;28;19996;-67
2024/01/14 10:00:18;;;;;;;;;;;-3.10;99.90;;;;;;5104560;28;20094;-67
2024/01/14 10:02:44;;;;;;;;;;;-3.10;99.90;;;;;;5115119;28;19947;-67
2024/01/14 10:05:11;;;;;;;;;;;-3.10;99.90;;;;;;5111511;28;19956;-67
2024/01/14 10:07:41;;;;;;;;;;;-3.10;99.90;;;;;;5120246;28;19919;-66
2024/01/14 10:10:08;;;;;;;;;;;-3.00;99.90;;;;;;5117138;28;19954;-66
2024/01/14 10:12:35;;;;;;;;;;;-3.00;99.90;;;;;;5117536;28;19956;-67
2024/01/14 10:15:02;;;;;;;;;;;-3.00;99.90;;;;;;5116704;28;19986;-67
2024/01/14 10:17:29;;;;;;;;;;;-2.90;99.90;;;;;;5120864;28;19920;-66
2024/01/14 10:19:57;;;;;;;;;;;-3.00;99.90;;;;;;5117352;28;19928;-67
2024/01/14 10:22:24;;;;;;;;;;;-2.90;99.90;;;;;;5124991;28;19920;-66
2024/01/14 10:24:53;;;;;;;;;;;-2.90;99.90;;;;;;5122746;28;19966;-70
2024/01/14 10:27:19;;;;;;;;;;;-2.90;99.90;;;;;;5110889;28;19958;-67
2024/01/14 10:29:50;;;;;;;;;;;-2.80;99.90;;;;;;5124196;28;19927;-68
2024/01/14 10:32:16;;;;;;;;;;;-2.80;99.90;;;;;;5124019;28;19926;-67
2024/01/14 10:34:43;;;;;;;;;;;-2.70;99.90;;;;;;5124990;28;19920;-67
2024/01/14 10:37:10;;;;;;;;;;;-2.70;99.90;;;;;;5123758;28;19994;-67
2024/01/14 10:39:36;;;;;;;;;;;-2.70;99.90;;;;;;5124906;28;19927;-67
2024/01/14 10:42:05;;;;;;;;;;;-2.60;99.90;;;;;;5124931;28;19982;-67
2024/01/14 10:44:32;;;;;;;;;;;-2.60;99.90;;;;;;5125025;28;20172;-67
2024/01/14 10:47:02;;;;;;;;;;;-2.50;99.90;;;;;;5124439;28;19970;-67
2024/01/14 10:49:29;;;;;;;;;;;-2.40;99.90;;;;;;5125030;28;19920;-68
2024/01/14 10:52:01;;;;;;;;;;;-2.30;99.90;;;;;;5124608;28;19990;-67
2024/01/14 10:54:30;;;;;;;;;;;-2.30;99.90;;;;;;5124310;28;19951;-67
2024/01/14 10:57:03;;;;;;;;;;;-2.30;99.90;;;;;;5124530;28;19951;-67
2024/01/14 10:59:33;;;;;;;;;;;-2.30;99.90;;;;;;5117712;28;20110;-67
2024/01/14 11:02:01;;;;;;;;;;;-2.40;99.90;;;;;;5123586;28;19966;-67
2024/01/14 11:04:28;;;;;;;;;;;-2.40;99.90;;;;;;5124413;28;19943;-67
2024/01/14 11:06:55;;;;;;;;;;;-2.30;99.90;;;;;;5124157;28;19942;-66
2024/01/14 11:09:22;;;;;;;;;;;-2.20;99.90;;;;;;5120218;27;20380;-68
2024/01/14 11:11:51;;;;;;;;;;;-2.10;99.90;;;;;;5123509;28;20260;-67
2024/01/14 11:14:21;;;;;;;;;;;-2.10;99.90;;;;;;5123271;28;19926;-67
2024/01/14 11:16:52;;;;;;;;;;;-2.10;99.90;;;;;;5124438;28;20121;-68
2024/01/14 11:19:21;;;;;;;;;;;-2.00;99.90;;;;;;5116849;28;19958;-67
2024/01/14 11:21:53;;;;;;;;;;;-2.00;99.90;;;;;;5123867;28;19919;-67
2024/01/14 11:24:21;;;;;;;;;;;-2.00;99.90;;;;;;5124217;28;19963;-68
2024/01/14 11:26:47;;;;;;;;;;;-1.90;99.90;;;;;;5120625;28;19958;-67
2024/01/14 11:29:14;;;;;;;;;;;-1.90;99.90;;;;;;5123398;28;19967;-68
2024/01/14 11:31:59;;;;;;;;;;;-1.80;99.90;;;;;;5124578;28;19979;-67
2024/01/14 11:34:41;;;;;;;;;;;-1.80;99.90;;;;;;5117050;28;19951;-68
2024/01/14 11:37:09;;;;;;;;;;;-1.70;99.90;;;;;;5111030;28;19920;-68
2024/01/14 11:39:37;;;;;;;;;;;-1.70;99.90;;;;;;5122391;28;21238;-67
2024/01/14 11:42:04;;;;;;;;;;;-1.60;99.90;;;;;;5123573;28;19994;-67
2024/01/14 11:44:31;;;;;;;;;;;-1.60;99.90;;;;;;5123448;28;19926;-67
2024/01/14 11:46:58;;;;;;;;;;;-1.50;99.90;;;;;;5123777;28;19930;-66
2024/01/14 11:49:28;;;;;;;;;;;-1.50;99.90;;;;;;5123527;28;20301;-69
2024/01/14 11:51:57;;;;;;;;;;;-1.40;99.90;;;;;;5123664;28;19942;-68
2024/01/14 11:54:25;;;;;;;;;;;-1.40;99.90;;;;;;5123754;28;19920;-68
2024/01/14 11:56:52;;;;;;;;;;;-1.40;99.90;;;;;;5123750;28;19952;-68
2024/01/14 11:59:19;;;;;;;;;;;-1.40;99.90;;;;;;5123658;28;20008;-67
2024/01/14 12:01:45;;;;;;;;;;;-1.50;99.90;;;;;;5123688;28;19919;-68
2024/01/14 12:04:12;;;;;;;;;;;-1.50;99.90;;;;;;5123574;28;19988;-67
2024/01/14 12:06:39;;;;;;;;;;;-1.50;99.90;;;;;;5123985;28;19926;-68
2024/01/14 12:09:06;;;;;;;;;;;-1.50;99.90;;;;;;5123190;28;19950;-68
2024/01/14 12:11:34;;;;;;;;;;;-1.50;99.90;;;;;;5123889;28;19919;-67
2024/01/14 12:14:01;;;;;;;;;;;-1.60;99.90;;;;;;5123507;28;19962;-68
2024/01/14 12:16:28;;;;;;;;;;;-1.70;99.90;;;;;;5123593;28;19962;-67
2024/01/14 12:18:55;;;;;;;;;;;-1.70;99.90;;;;;;5118813;28;19926;-68
2024/01/14 12:21:22;;;;;;;;;;;-1.70;99.90;;;;;;5123496;28;20260;-68
2024/01/14 12:23:49;;;;;;;;;;;-1.70;99.90;;;;;;5123527;28;20185;-68
2024/01/14 12:26:15;;;;;;;;;;;-1.70;99.90;;;;;;5123347;28;19962;-68
2024/01/14 12:28:43;;;;;;;;;;;-1.60;99.90;;;;;;5123774;28;19920;-68
2024/01/14 12:31:17;;;;;;;;;;;-1.60;99.90;;;;;;5124859;28;19979;-68
2024/01/14 12:33:44;;;;;;;;;;;-1.50;99.90;;;;;;5117536;28;19920;-68
2024/01/14 12:36:12;;;;;;;;;;;-1.60;99.90;;;;;;5114128;28;19928;-69
2024/01/14 12:38:39;;;;;;;;;;;-1.60;99.90;;;;;;5122400;28;19920;-68
2024/01/14 12:41:06;;;;;;;;;;;-1.60;99.90;;;;;;5126038;28;19919;-68
2024/01/14 12:43:32;;;;;;;;;;;-1.50;99.90;;;;;;5127355;28;19955;-69
2024/01/14 12:46:02;;;;;;;;;;;-1.40;99.90;;;;;;5119752;28;19966;-68
2024/01/14 12:48:29;;;;;;;;;;;-1.30;99.90;;;;;;5123732;28;19919;-68
2024/01/14 12:50:56;;;;;;;;;;;-1.20;99.90;;;;;;5100077;28;19969;-71
2024/01/14 12:53:23;;;;;;;;;;;-1.00;99.90;;;;;;5117297;28;19957;-67
2024/01/14 12:55:50;;;;;;;;;;;-1.00;99.90;;;;;;5125400;28;19955;-68
2024/01/14 12:58:17;;;;;;;;;;;-0.80;99.90;;;;;;5114343;28;19987;-70
2024/01/14 13:00:44;;;;;;;;;;;-0.70;99.90;;;;;;5120389;28;20291;-68
2024/01/14 13:03:12;;;;;;;;;;;-0.60;99.90;;;;;;5125865;28;19965;-69
2024/01/14 13:05:39;;;;;;;;;;;-0.50;99.90;;;;;;5116833;28;20004;-68
2024/01/14 13:08:06;;;;;;;;;;;-0.50;99.90;;;;;;5121692;28;21239;-69
2024/01/14 13:10:32;;;;;;;;;;;-0.40;99.90;;;;;;5126803;28;19955;-69
2024/01/14 13:12:59;;;;;;;;;;;-0.30;99.90;;;;;;5124887;28;19966;-69
2024/01/14 13:15:26;;;;;;;;;;;-0.30;99.90;;;;;;5118300;28;19991;-68
2024/01/14 13:17:55;;;;;;;;;;;-0.10;99.90;;;;;;5123358;28;19958;-70
2024/01/14 13:20:23;;;;;;;;;;;0.00;99.90;;;;;;5109618;28;19957;-70
2024/01/14 13:22:49;;;;;;;;;;;0.20;99.90;;;;;;5117697;28;19963;-70
2024/01/14 13:25:16;;;;;;;;;;;0.40;99.90;;;;;;5123740;28;19920;-70
2024/01/14 13:27:42;;;;;;;;;;;0.50;99.90;;;;;;5117789;28;19991;-70
2024/01/14 13:30:10;;;;;;;;;;;0.60;99.90;;;;;;5121162;28;19959;-69
2024/01/14 13:32:37;;;;;;;;;;;0.70;99.90;;;;;;5119188;28;19920;-69
2024/01/14 13:35:04;;;;;;;;;;;0.70;99.90;;;;;;5124501;28;19930;-68
2024/01/14 13:37:32;;;;;;;;;;;0.70;99.90;;;;;;5119105;28;19920;-69
2024/01/14 13:39:59;;;;;;;;;;;0.70;99.90;;;;;;5114063;28;19961;-70
2024/01/14 13:42:26;;;;;;;;;;;0.70;99.90;;;;;;5119504;28;19983;-69
2024/01/14 13:44:52;;;;;;;;;;;0.50;99.90;;;;;;5125917;28;19955;-71
2024/01/14 13:47:19;;;;;;;;;;;0.40;99.90;;;;;;5123930;28;19975;-70
2024/01/14 13:49:46;;;;;;;;;;;0.40;99.90;;;;;;5123217;28;19996;-70
2024/01/14 13:52:12;;;;;;;;;;;0.40;99.90;;;;;;5102252;28;19952;-69
2024/01/14 13:54:40;;;;;;;;;;;0.30;99.90;;;;;;5100557;28;19958;-69
2024/01/14 13:57:07;;;;;;;;;;;0.40;99.90;;;;;;5098301;28;19955;-70
2024/01/14 13:59:35;;;;;;;;;;;0.40;99.90;;;;;;5097290;28;19926;-70
2024/01/14 14:02:02;;;;;;;;;;;0.50;99.90;;;;;;5099213;28;19928;-70
2024/01/14 14:04:28;;;;;;;;;;;0.50;99.90;;;;;;5097348;28;19920;-69
2024/01/14 14:06:55;;;;;;;;;;;0.40;99.90;;;;;;5097947;28;19984;-69
2024/01/14 14:09:22;;;;;;;;;;;0.40;99.90;;;;;;5097236;28;19920;-67
2024/01/14 14:11:50;;;;;;;;;;;0.30;99.90;;;;;;5113478;27;20114;-69
2024/01/14 14:14:17;;;;;;;;;;;0.30;99.90;;;;;;5112466;28;19986;-68
2024/01/14 14:16:43;;;;;;;;;;;0.20;99.90;;;;;;5125125;28;19927;-68
2024/01/14 14:19:11;;;;;;;;;;;0.20;99.90;;;;;;5124832;28;19987;-67